createdAt,value
2018-12-05T00:00:43.086Z,18.17
2018-12-05T00:03:11.626Z,10.93
2018-12-05T00:05:40.123Z,13.33
2018-12-05T00:08:08.606Z,15.80
2018-12-05T00:10:37.084Z,5.97
2018-12-05T00:13:05.658Z,11.20
2018-12-05T00:15:34.118Z,16.57
2018-12-05T00:18:02.586Z,12.50
2018-12-05T00:20:31.066Z,11.70
2018-12-05T00:22:59.609Z,15.17
2018-12-05T00:25:28.093Z,13.10
2018-12-05T00:27:56.558Z,13.07
2018-12-05T00:30:25.025Z,18.53
2018-12-05T00:32:53.526Z,13.33
2018-12-05T00:35:22.041Z,11.67
2018-12-05T00:37:50.507Z,10.23
2018-12-05T00:40:19.005Z,10.50
2018-12-05T00:42:47.465Z,9.77
2018-12-05T00:45:15.941Z,18.63
2018-12-05T00:47:44.480Z,13.57
2018-12-05T00:50:13.152Z,12.40
2018-12-05T00:52:41.621Z,12.47
2018-12-05T00:55:10.105Z,11.57
2018-12-05T00:57:38.581Z,11.30
2018-12-05T01:00:08.654Z,12.53
2018-12-05T01:02:37.148Z,8.90
2018-12-05T01:05:07.814Z,13.93
2018-12-05T01:07:36.480Z,12.87
2018-12-05T01:10:06.256Z,8.93
2018-12-05T01:12:34.743Z,17.57
2018-12-05T01:15:03.486Z,14.73
2018-12-05T01:17:31.976Z,11.03
2018-12-05T01:20:00.572Z,14.17
2018-12-05T01:22:29.068Z,15.83
2018-12-05T01:24:57.548Z,13.30
2018-12-05T01:27:26.028Z,14.40
2018-12-05T01:29:54.520Z,16.33
2018-12-05T01:32:23.040Z,13.83
2018-12-05T01:34:51.652Z,15.37
2018-12-05T01:37:20.124Z,17.73
2018-12-05T01:39:48.619Z,11.93
2018-12-05T01:42:17.140Z,18.20
2018-12-05T01:44:45.904Z,7.50
2018-12-05T01:47:14.379Z,15.70
2018-12-05T01:49:42.864Z,12.83
2018-12-05T01:52:11.340Z,10.10
2018-12-05T01:54:39.931Z,10.57
2018-12-05T01:57:08.560Z,15.70
2018-12-05T01:59:37.040Z,14.60
2018-12-05T02:02:05.504Z,13.57
2018-12-05T02:04:33.996Z,18.33
2018-12-05T02:07:02.627Z,15.93
2018-12-05T02:09:31.112Z,10.57
2018-12-05T02:11:59.690Z,12.10
2018-12-05T02:14:28.188Z,13.27
2018-12-05T02:16:56.671Z,11.27
2018-12-05T02:19:25.154Z,13.90
2018-12-05T02:21:53.649Z,12.83
2018-12-05T02:24:22.136Z,10.73
2018-12-05T02:26:50.727Z,13.47
2018-12-05T02:29:19.207Z,10.63
2018-12-05T02:31:48.383Z,10.13
2018-12-05T02:34:16.875Z,10.17
2018-12-05T02:36:45.379Z,7.40
2018-12-05T02:39:13.844Z,6.47
2018-12-05T02:41:42.339Z,9.60
2018-12-05T02:44:10.828Z,12.20
2018-12-05T02:46:39.315Z,8.77
2018-12-05T02:49:07.791Z,12.33
2018-12-05T02:51:36.243Z,8.77
2018-12-05T02:54:04.843Z,12.20
2018-12-05T02:56:33.400Z,9.03
2018-12-05T02:59:01.930Z,15.13
2018-12-05T03:01:30.682Z,11.90
2018-12-05T03:03:59.207Z,10.97
2018-12-05T03:06:27.663Z,12.77
2018-12-05T03:08:56.147Z,10.60
2018-12-05T03:11:24.626Z,10.70
2018-12-05T03:13:53.090Z,11.80
2018-12-05T03:17:24.803Z,12.27
2018-12-05T03:19:53.254Z,8.80
2018-12-05T03:22:21.758Z,11.23
2018-12-05T03:24:50.215Z,12.03
2018-12-05T03:27:18.709Z,10.90
2018-12-05T03:29:47.198Z,17.33
2018-12-05T03:32:15.714Z,15.37
2018-12-05T03:34:44.269Z,8.43
2018-12-05T03:37:12.739Z,12.87
2018-12-05T03:39:41.249Z,9.60
2018-12-05T03:42:09.714Z,10.93
2018-12-05T03:44:38.973Z,15.00
2018-12-05T03:47:07.518Z,12.60
2018-12-05T03:49:36.010Z,15.77
2018-12-05T03:52:04.673Z,8.53
2018-12-05T03:54:33.137Z,14.87
2018-12-05T03:57:01.634Z,11.03
2018-12-05T03:59:30.128Z,13.53
2018-12-05T04:01:58.681Z,13.07
2018-12-05T04:04:27.181Z,13.23
2018-12-05T04:06:55.669Z,9.83
2018-12-05T04:09:24.161Z,16.80
2018-12-05T04:11:52.658Z,12.33
2018-12-05T04:14:21.149Z,16.83
2018-12-05T04:16:49.640Z,15.17
2018-12-05T04:19:18.118Z,9.87
2018-12-05T04:21:47.009Z,11.60
2018-12-05T04:24:15.481Z,8.27
2018-12-05T04:26:43.940Z,8.73
2018-12-05T04:29:12.422Z,12.03
2018-12-05T04:31:40.894Z,17.60
2018-12-05T04:34:09.390Z,19.67
2018-12-05T04:36:37.869Z,16.57
2018-12-05T04:39:08.788Z,17.47
2018-12-05T04:41:37.241Z,12.07
2018-12-05T04:44:06.030Z,22.43
2018-12-05T04:46:34.517Z,15.27
2018-12-05T04:49:02.993Z,21.23
2018-12-05T04:51:31.477Z,12.37
2018-12-05T04:54:00.230Z,20.80
2018-12-05T04:56:28.697Z,19.03
2018-12-05T04:58:57.169Z,16.70
2018-12-05T05:01:25.782Z,12.03
2018-12-05T05:03:54.268Z,15.30
2018-12-05T05:06:22.729Z,14.97
2018-12-05T05:08:51.213Z,21.73
2018-12-05T05:11:19.712Z,20.47
2018-12-05T05:13:48.197Z,15.13
2018-12-05T05:16:16.697Z,15.57
2018-12-05T05:18:45.160Z,18.33
2018-12-05T05:21:13.636Z,13.10
2018-12-05T05:23:42.142Z,13.10
2018-12-05T05:26:10.617Z,21.23
2018-12-05T05:28:39.081Z,18.77
2018-12-05T05:31:07.562Z,13.10
2018-12-05T05:33:36.242Z,14.27
2018-12-05T05:36:04.726Z,17.07
2018-12-05T05:38:33.235Z,13.97
2018-12-05T05:41:01.718Z,14.50
2018-12-05T05:43:30.201Z,17.73
2018-12-05T05:45:58.730Z,10.90
2018-12-05T05:48:27.215Z,11.77
2018-12-05T05:50:55.788Z,10.37
2018-12-05T05:53:24.298Z,12.10
2018-12-05T05:55:52.793Z,15.73
2018-12-05T05:58:21.270Z,18.00
2018-12-05T06:00:49.784Z,11.37
2018-12-05T06:03:18.234Z,10.67
2018-12-05T06:05:46.684Z,14.37
2018-12-05T06:08:15.400Z,20.33
2018-12-05T06:10:43.897Z,12.60
2018-12-05T06:13:12.415Z,13.47
2018-12-05T06:15:40.882Z,25.37
2018-12-05T06:18:09.330Z,20.83
2018-12-05T06:20:37.794Z,18.37
2018-12-05T06:23:06.310Z,17.90
2018-12-05T06:25:34.894Z,14.87
2018-12-05T06:28:03.363Z,23.00
2018-12-05T06:30:31.840Z,16.97
2018-12-05T06:33:00.341Z,17.17
2018-12-05T06:35:28.821Z,17.73
2018-12-05T06:37:57.465Z,14.77
2018-12-05T06:40:25.978Z,26.27
2018-12-05T06:42:54.580Z,40.67
2018-12-05T06:45:23.066Z,19.53
2018-12-05T06:47:51.544Z,20.30
2018-12-05T06:50:20.098Z,50.83
2018-12-05T06:52:48.584Z,61.17
2018-12-05T06:55:17.064Z,65.13
2018-12-05T06:57:45.620Z,42.00
2018-12-05T07:00:14.249Z,107.73
2018-12-05T07:02:46.107Z,38.50
2018-12-05T07:05:14.720Z,52.30
2018-12-05T07:07:43.233Z,53.77
2018-12-05T07:10:11.732Z,52.80
2018-12-05T07:12:40.200Z,45.23
2018-12-05T07:15:08.883Z,34.40
2018-12-05T07:17:37.383Z,46.50
2018-12-05T07:20:08.274Z,34.27
2018-12-05T07:22:36.791Z,26.33
2018-12-05T07:25:05.948Z,32.47
2018-12-05T07:27:34.420Z,32.77
2018-12-05T07:30:03.012Z,33.20
2018-12-05T07:32:31.475Z,30.80
2018-12-05T07:34:59.951Z,28.63
2018-12-05T07:37:28.423Z,29.97
2018-12-05T07:39:56.896Z,29.13
2018-12-05T07:42:25.391Z,35.93
2018-12-05T07:44:54.027Z,33.37
2018-12-05T07:47:22.499Z,30.53
2018-12-05T07:49:50.963Z,32.27
2018-12-05T07:52:19.459Z,31.87
2018-12-05T07:54:47.924Z,29.80
2018-12-05T07:57:16.423Z,29.80
2018-12-05T07:59:44.890Z,27.90
2018-12-05T08:02:13.363Z,36.57
2018-12-05T08:04:41.839Z,25.90
2018-12-05T08:07:10.334Z,22.27
2018-12-05T08:09:38.831Z,23.80
2018-12-05T08:12:07.327Z,25.73
2018-12-05T08:14:35.911Z,21.33
2018-12-05T08:17:04.403Z,27.73
2018-12-05T08:19:32.887Z,25.07
2018-12-05T08:22:01.399Z,29.97
2018-12-05T08:24:29.903Z,23.77
2018-12-05T08:26:58.390Z,22.30
2018-12-05T08:29:26.926Z,29.03
2018-12-05T08:31:55.469Z,21.37
2018-12-05T08:34:24.278Z,23.90
2018-12-05T08:36:52.782Z,21.40
2018-12-05T08:39:21.270Z,15.50
2018-12-05T08:41:49.878Z,24.07
2018-12-05T08:44:18.382Z,25.50
2018-12-05T08:46:47.010Z,22.13
2018-12-05T08:49:15.482Z,29.20
2018-12-05T08:51:43.997Z,33.03
2018-12-05T08:54:12.482Z,26.20
2018-12-05T08:56:40.990Z,29.70
2018-12-05T08:59:09.476Z,33.20
2018-12-05T09:01:37.941Z,30.30
2018-12-05T09:04:06.741Z,23.33
2018-12-05T09:06:35.269Z,22.50
2018-12-05T09:09:04.501Z,28.80
2018-12-05T09:11:33.005Z,24.83
2018-12-05T09:14:01.485Z,27.63
2018-12-05T09:16:29.950Z,28.43
2018-12-05T09:18:58.465Z,21.03
2018-12-05T09:21:27.065Z,18.23
2018-12-05T09:24:58.425Z,25.20
2018-12-05T09:27:26.917Z,20.80
2018-12-05T09:29:55.378Z,21.53
2018-12-05T09:32:23.909Z,21.80
2018-12-05T09:34:52.405Z,20.20
2018-12-05T09:37:20.901Z,21.23
2018-12-05T09:39:49.377Z,20.33
2018-12-05T09:42:17.869Z,25.07
2018-12-05T09:44:46.349Z,22.90
2018-12-05T09:47:16.055Z,21.20
2018-12-05T09:49:44.953Z,19.77
2018-12-05T09:52:13.436Z,20.53
2018-12-05T09:54:41.970Z,20.50
2018-12-05T09:57:10.505Z,16.63
2018-12-05T09:59:38.975Z,33.33
2018-12-05T10:02:07.436Z,17.63
2018-12-05T10:04:35.912Z,15.30
2018-12-05T10:07:04.372Z,18.20
2018-12-05T10:09:32.872Z,17.37
2018-12-05T10:12:01.360Z,23.30
2018-12-05T10:14:29.823Z,15.87
2018-12-05T10:16:58.419Z,19.63
2018-12-05T10:19:26.873Z,15.23
2018-12-05T10:21:55.631Z,19.40
2018-12-05T10:24:24.087Z,16.93
2018-12-05T10:26:52.554Z,18.77
2018-12-05T10:29:21.031Z,19.93
2018-12-05T10:31:49.630Z,25.07
2018-12-05T10:34:18.118Z,15.40
2018-12-05T10:36:46.572Z,19.50
2018-12-05T10:39:15.046Z,14.40
2018-12-05T10:41:43.558Z,15.10
2018-12-05T10:44:12.086Z,22.53
2018-12-05T10:46:40.570Z,17.23
2018-12-05T10:49:09.161Z,17.27
2018-12-05T10:51:37.927Z,20.37
2018-12-05T10:54:07.506Z,19.10
2018-12-05T10:56:36.054Z,26.13
2018-12-05T10:59:04.782Z,18.67
2018-12-05T11:01:38.670Z,16.37
2018-12-05T11:04:12.702Z,18.80
2018-12-05T11:06:47.393Z,17.30
2018-12-05T11:09:21.058Z,14.37
2018-12-05T11:12:53.362Z,30.03
2018-12-05T11:15:27.161Z,18.67
2018-12-05T11:18:01.109Z,14.80
2018-12-05T11:20:35.017Z,17.30
2018-12-05T11:23:08.928Z,14.83
2018-12-05T11:25:37.495Z,16.10
2018-12-05T11:28:06.077Z,18.37
2018-12-05T11:30:34.717Z,14.17
2018-12-05T11:33:03.198Z,17.37
2018-12-05T11:35:31.668Z,17.73
2018-12-05T11:38:00.169Z,14.57
2018-12-05T11:40:28.761Z,17.83
2018-12-05T11:42:57.247Z,10.83
2018-12-05T11:45:25.696Z,13.47
2018-12-05T11:47:54.165Z,15.60
2018-12-05T11:50:22.649Z,18.73
2018-12-05T11:52:51.124Z,22.67
2018-12-05T11:55:19.621Z,18.57
2018-12-05T11:57:48.289Z,20.80
2018-12-05T12:00:16.765Z,12.13
2018-12-05T12:02:45.248Z,17.03
2018-12-05T12:05:13.864Z,18.00
2018-12-05T12:07:42.364Z,13.47
2018-12-05T12:10:11.068Z,15.33
2018-12-05T12:12:45.008Z,16.43
2018-12-05T12:15:14.117Z,26.23
2018-12-05T12:17:42.621Z,18.17
2018-12-05T12:20:11.348Z,23.43
2018-12-05T12:22:39.938Z,20.13
2018-12-05T12:25:08.597Z,33.47
2018-12-05T12:27:37.100Z,27.70
2018-12-05T12:30:05.768Z,15.93
2018-12-05T12:32:34.264Z,23.87
2018-12-05T12:35:02.900Z,19.77
2018-12-05T12:37:31.376Z,16.27
2018-12-05T12:39:59.912Z,21.37
2018-12-05T12:42:28.392Z,24.93
2018-12-05T12:44:56.919Z,11.90
2018-12-05T12:47:25.411Z,14.03
2018-12-05T12:49:53.916Z,15.17
2018-12-05T12:52:22.399Z,19.23
2018-12-05T12:54:50.884Z,21.87
2018-12-05T12:57:19.411Z,17.13
2018-12-05T12:59:47.880Z,19.77
2018-12-05T13:02:16.369Z,17.27
2018-12-05T13:04:44.868Z,27.73
2018-12-05T13:07:13.901Z,17.17
2018-12-05T13:09:42.392Z,18.00
2018-12-05T13:12:12.888Z,19.00
2018-12-05T13:14:41.371Z,23.30
2018-12-05T13:17:09.832Z,20.50
2018-12-05T13:19:38.285Z,23.10
2018-12-05T13:22:06.823Z,17.27
2018-12-05T13:24:35.312Z,19.40
2018-12-05T13:27:03.864Z,23.80
2018-12-05T13:29:32.351Z,19.47
2018-12-05T13:32:00.833Z,20.97
2018-12-05T13:34:29.304Z,19.83
2018-12-05T13:36:57.804Z,24.07
2018-12-05T13:39:26.384Z,27.10
2018-12-05T13:41:54.880Z,16.53
2018-12-05T13:44:23.364Z,20.27
2018-12-05T13:46:51.860Z,21.87
2018-12-05T13:49:20.459Z,26.40
2018-12-05T13:51:48.960Z,29.67
2018-12-05T13:54:17.772Z,27.53
2018-12-05T13:56:46.284Z,21.80
2018-12-05T13:59:14.955Z,20.03
2018-12-05T14:01:43.448Z,20.03
2018-12-05T14:04:11.927Z,15.60
2018-12-05T14:06:40.413Z,24.20
2018-12-05T14:09:08.903Z,31.70
2018-12-05T14:11:37.384Z,32.83
2018-12-05T14:14:05.892Z,37.37
2018-12-05T14:16:34.391Z,90.90
2018-12-05T14:19:02.872Z,41.53
2018-12-05T14:21:31.367Z,47.43
2018-12-05T14:23:59.878Z,89.23
2018-12-05T14:26:28.398Z,61.17
2018-12-05T14:28:56.913Z,56.33
2018-12-05T14:31:25.403Z,58.80
2018-12-05T14:33:53.863Z,32.97
2018-12-05T14:36:22.351Z,34.10
2018-12-05T14:38:50.843Z,33.87
2018-12-05T14:41:19.419Z,39.67
2018-12-05T14:43:47.895Z,78.77
2018-12-05T14:46:16.371Z,79.63
2018-12-05T14:48:44.851Z,80.63
2018-12-05T14:51:13.323Z,92.60
2018-12-05T14:53:41.829Z,35.40
2018-12-05T14:56:10.288Z,22.80
2018-12-05T14:58:38.782Z,29.30
2018-12-05T15:01:07.286Z,27.27
2018-12-05T15:03:35.778Z,29.17
2018-12-05T15:06:04.281Z,32.03
2018-12-05T15:08:32.789Z,93.03
2018-12-05T15:11:01.289Z,109.33
2018-12-05T15:13:29.801Z,77.37
2018-12-05T15:15:58.296Z,58.30
2018-12-05T15:18:26.785Z,39.37
2018-12-05T15:20:55.283Z,34.50
2018-12-05T15:23:23.774Z,50.50
2018-12-05T15:25:52.286Z,42.07
2018-12-05T15:28:20.781Z,35.70
2018-12-05T15:30:49.273Z,31.37
2018-12-05T15:33:17.867Z,40.47
2018-12-05T15:35:46.376Z,138.27
2018-12-05T15:38:14.928Z,121.80
2018-12-05T15:40:43.416Z,70.13
2018-12-05T15:43:12.217Z,59.70
2018-12-05T15:45:40.748Z,60.67
2018-12-05T15:48:09.244Z,62.43
2018-12-05T15:50:37.780Z,94.50
2018-12-05T15:53:06.268Z,328.40
2018-12-05T15:55:35.108Z,352.53
2018-12-05T15:58:03.740Z,257.83
2018-12-05T16:00:32.360Z,632.77
2018-12-05T16:03:00.869Z,529.60
2018-12-05T16:05:29.377Z,478.93
2018-12-05T16:07:57.914Z,329.37
2018-12-05T16:10:26.400Z,258.60
2018-12-05T16:12:54.872Z,225.50
2018-12-05T16:15:23.708Z,166.07
2018-12-05T16:17:52.220Z,100.03
2018-12-05T16:20:20.704Z,82.87
2018-12-05T16:22:50.048Z,111.93
2018-12-05T16:25:18.560Z,79.43
2018-12-05T16:27:47.040Z,56.57
2018-12-05T16:30:15.667Z,54.20
2018-12-05T16:32:44.191Z,47.53
2018-12-05T16:35:12.696Z,29.33
2018-12-05T16:37:41.212Z,37.03
2018-12-05T16:40:09.799Z,42.77
2018-12-05T16:42:38.391Z,40.93
2018-12-05T16:45:07.816Z,39.40
2018-12-05T16:47:36.287Z,45.10
2018-12-05T16:50:05.220Z,34.03
2018-12-05T16:52:33.708Z,45.93
2018-12-05T16:55:02.209Z,54.30
2018-12-05T16:57:30.741Z,51.33
2018-12-05T16:59:59.211Z,38.70
2018-12-05T17:02:27.683Z,41.97
2018-12-05T17:04:56.200Z,80.33
2018-12-05T17:07:24.671Z,108.37
2018-12-05T17:09:53.187Z,135.20
2018-12-05T17:12:21.683Z,181.20
2018-12-05T17:14:50.183Z,105.07
2018-12-05T17:17:18.691Z,148.10
2018-12-05T17:19:47.207Z,156.50
2018-12-05T17:22:15.711Z,172.13
2018-12-05T17:24:44.191Z,163.93
2018-12-05T17:27:12.808Z,170.00
2018-12-05T17:29:41.299Z,178.23
2018-12-05T17:32:09.635Z,169.70
2018-12-05T17:34:38.119Z,164.37
2018-12-05T17:37:06.922Z,210.03
2018-12-05T17:39:35.435Z,221.13
2018-12-05T17:42:03.643Z,216.13
2018-12-05T17:44:32.123Z,216.57
2018-12-05T17:47:00.711Z,241.33
2018-12-05T17:49:29.231Z,242.40
2018-12-05T17:51:57.719Z,298.83
2018-12-05T17:54:26.203Z,285.30
2018-12-05T17:56:54.763Z,428.60
2018-12-05T17:59:23.235Z,372.03
2018-12-05T18:01:51.710Z,403.30
2018-12-05T18:04:20.199Z,374.27
2018-12-05T18:06:48.696Z,354.27
2018-12-05T18:09:17.215Z,388.70
2018-12-05T18:11:45.706Z,544.33
2018-12-05T18:14:14.197Z,415.37
2018-12-05T18:16:42.958Z,236.67
2018-12-05T18:19:11.458Z,190.07
2018-12-05T18:21:39.977Z,289.57
2018-12-05T18:24:08.749Z,339.27
2018-12-05T18:26:37.388Z,317.17
2018-12-05T18:29:05.881Z,331.50
2018-12-05T18:31:34.364Z,299.60
2018-12-05T18:34:02.864Z,301.57
2018-12-05T18:36:31.456Z,292.73
2018-12-05T18:38:59.972Z,252.13
2018-12-05T18:41:28.468Z,282.63
2018-12-05T18:43:56.980Z,282.00
2018-12-05T18:46:25.487Z,304.17
2018-12-05T18:48:53.959Z,269.80
2018-12-05T18:51:22.864Z,370.30
2018-12-05T18:53:51.370Z,271.27
2018-12-05T18:56:19.984Z,301.20
2018-12-05T18:58:48.499Z,293.80
2018-12-05T19:01:17.035Z,277.70
2018-12-05T19:03:45.519Z,259.13
2018-12-05T19:06:14.049Z,252.80
2018-12-05T19:08:43.304Z,248.40
2018-12-05T19:11:11.845Z,256.73
2018-12-05T19:13:45.754Z,235.67
2018-12-05T19:16:14.251Z,241.97
2018-12-05T19:18:42.771Z,222.47
2018-12-05T19:21:11.427Z,260.30
2018-12-05T19:23:39.972Z,260.40
2018-12-05T19:26:08.447Z,403.07
2018-12-05T19:28:37.099Z,541.30
2018-12-05T19:31:05.749Z,512.50
2018-12-05T19:33:34.283Z,436.13
2018-12-05T19:36:02.767Z,277.30
2018-12-05T19:38:31.255Z,287.00
2018-12-05T19:40:59.739Z,272.87
2018-12-05T19:43:28.570Z,186.17
2018-12-05T19:45:57.234Z,148.33
2018-12-05T19:48:25.706Z,127.67
2018-12-05T19:50:54.246Z,134.80
2018-12-05T19:53:22.762Z,86.47
2018-12-05T19:55:51.270Z,95.50
2018-12-05T19:58:19.802Z,96.57
2018-12-05T20:00:48.678Z,127.47
2018-12-05T20:03:17.155Z,142.17
2018-12-05T20:05:45.654Z,149.87
2018-12-05T20:08:14.226Z,149.37
2018-12-05T20:10:42.792Z,159.90
2018-12-05T20:13:11.461Z,141.17
2018-12-05T20:15:40.094Z,140.03
2018-12-05T20:18:09.070Z,159.20
2018-12-05T20:20:37.618Z,126.67
2018-12-05T20:23:06.218Z,116.10
2018-12-05T20:25:34.833Z,160.90
2018-12-05T20:28:03.414Z,147.13
2018-12-05T20:30:31.911Z,325.17
2018-12-05T20:33:00.376Z,326.87
2018-12-05T20:35:28.852Z,176.30
2018-12-05T20:37:57.341Z,148.10
2018-12-05T20:40:25.892Z,161.30
2018-12-05T20:42:54.401Z,150.00
2018-12-05T20:45:22.992Z,159.23
2018-12-05T20:47:51.475Z,161.63
2018-12-05T20:50:20.092Z,198.13
2018-12-05T20:52:48.638Z,148.73
2018-12-05T20:55:17.127Z,154.20
2018-12-05T20:57:45.613Z,148.90
2018-12-05T21:00:14.212Z,145.30
2018-12-05T21:02:42.734Z,131.27
2018-12-05T21:05:11.436Z,143.37
2018-12-05T21:07:40.043Z,148.20
2018-12-05T21:10:08.532Z,127.03
2018-12-05T21:12:37.052Z,137.10
2018-12-05T21:15:06.092Z,137.80
2018-12-05T21:17:34.579Z,147.27
2018-12-05T21:20:03.175Z,129.40
2018-12-05T21:22:31.676Z,187.93
2018-12-05T21:25:00.176Z,181.23
2018-12-05T21:27:28.711Z,216.00
2018-12-05T21:29:57.228Z,169.57
2018-12-05T21:32:25.735Z,128.30
2018-12-05T21:34:54.243Z,120.57
2018-12-05T21:37:22.824Z,120.80
2018-12-05T21:39:51.611Z,116.43
2018-12-05T21:42:21.015Z,111.20
2018-12-05T21:44:49.687Z,138.60
2018-12-05T21:47:18.195Z,153.13
2018-12-05T21:49:46.723Z,199.70
2018-12-05T21:52:15.339Z,263.93
2018-12-05T21:54:43.842Z,209.07
2018-12-05T21:57:12.304Z,229.73
2018-12-05T21:59:40.807Z,232.50
2018-12-05T22:02:09.322Z,192.40
2018-12-05T22:04:37.822Z,167.10
2018-12-05T22:07:06.451Z,198.47
2018-12-05T22:09:34.954Z,251.97
2018-12-05T22:12:03.455Z,262.63
2018-12-05T22:14:31.970Z,242.03
2018-12-05T22:17:00.570Z,229.07
2018-12-05T22:19:29.148Z,252.53
2018-12-05T22:21:57.630Z,212.33
2018-12-05T22:24:26.104Z,227.70
2018-12-05T22:26:54.606Z,197.67
2018-12-05T22:29:23.107Z,227.77
2018-12-05T22:31:51.587Z,211.40
2018-12-05T22:34:20.107Z,191.50
2018-12-05T22:36:48.695Z,180.87
2018-12-05T22:39:17.194Z,184.97
2018-12-05T22:41:45.803Z,187.07
2018-12-05T22:44:14.322Z,191.27
2018-12-05T22:46:42.830Z,182.17
2018-12-05T22:49:11.317Z,222.63
2018-12-05T22:51:39.793Z,260.37
2018-12-05T22:54:08.388Z,273.60
2018-12-05T22:56:36.981Z,282.83
2018-12-05T22:59:05.480Z,315.13
2018-12-05T23:01:33.960Z,358.33
2018-12-05T23:04:02.576Z,397.63
2018-12-05T23:06:31.080Z,347.07
2018-12-05T23:08:59.556Z,320.73
2018-12-05T23:11:28.047Z,263.50
2018-12-05T23:13:56.564Z,266.10
2018-12-05T23:16:25.064Z,327.70
2018-12-05T23:18:53.573Z,647.13
2018-12-05T23:21:22.205Z,520.57
2018-12-05T23:23:50.703Z,492.57
2018-12-05T23:26:19.266Z,438.30
2018-12-05T23:28:53.499Z,473.47
2018-12-05T23:31:22.007Z,440.03
2018-12-05T23:33:50.511Z,375.97
2018-12-05T23:36:19.023Z,323.27
2018-12-05T23:38:47.531Z,317.70
2018-12-05T23:41:16.019Z,300.07
2018-12-05T23:43:44.607Z,219.43
2018-12-05T23:46:13.095Z,199.57
2018-12-05T23:48:41.579Z,162.50
2018-12-05T23:51:10.079Z,205.27
2018-12-05T23:53:38.599Z,194.70
2018-12-05T23:56:07.183Z,193.47
2018-12-05T23:58:35.663Z,179.10
